sensor_id;sensor_type;location;lat;lon;timestamp;P1;durP1;ratioP1;P2;durP2;ratioP2
78458;SDS011;67753;42.684;23.330;2023-05-14T00:00:32;4.07;;;3.67;;
78458;SDS011;67753;42.684;23.330;2023-05-14T00:02:34;4.00;;;3.60;;
78458;SDS011;67753;42.684;23.330;2023-05-14T00:04:38;3.83;;;3.43;;
78458;SDS011;67753;42.684;23.330;2023-05-14T00:06:39;3.80;;;3.50;;
78458;SDS011;67753;42.684;23.330;2023-05-14T00:08:41;5.93;;;3.80;;
78458;SDS011;67753;42.684;23.330;2023-05-14T00:10:43;4.17;;;3.87;;
78458;SDS011;67753;42.684;23.330;2023-05-14T00:12:45;4.17;;;3.80;;
78458;SDS011;67753;42.684;23.330;2023-05-14T00:14:46;3.60;;;3.30;;
78458;SDS011;67753;42.684;23.330;2023-05-14T00:16:48;4.20;;;3.80;;
78458;SDS011;67753;42.684;23.330;2023-05-14T00:18:51;4.13;;;3.80;;
78458;SDS011;67753;42.684;23.330;2023-05-14T00:20:55;3.47;;;3.17;;
78458;SDS011;67753;42.684;23.330;2023-05-14T00:22:57;4.00;;;3.60;;
78458;SDS011;67753;42.684;23.330;2023-05-14T00:24:59;3.47;;;3.23;;
78458;SDS011;67753;42.684;23.330;2023-05-14T00:27:01;4.13;;;3.40;;
78458;SDS011;67753;42.684;23.330;2023-05-14T00:29:03;4.83;;;3.57;;
78458;SDS011;67753;42.684;23.330;2023-05-14T00:31:05;3.90;;;3.60;;
78458;SDS011;67753;42.684;23.330;2023-05-14T00:33:07;5.10;;;3.57;;
78458;SDS011;67753;42.684;23.330;2023-05-14T00:35:09;3.67;;;3.37;;
78458;SDS011;67753;42.684;23.330;2023-05-14T00:37:12;4.13;;;3.57;;
78458;SDS011;67753;42.684;23.330;2023-05-14T00:39:14;3.73;;;3.43;;
78458;SDS011;67753;42.684;23.330;2023-05-14T00:41:16;4.13;;;3.83;;
78458;SDS011;67753;42.684;23.330;2023-05-14T00:43:18;4.83;;;3.50;;
78458;SDS011;67753;42.684;23.330;2023-05-14T00:45:21;3.70;;;3.40;;
78458;SDS011;67753;42.684;23.330;2023-05-14T00:47:22;4.27;;;3.53;;
78458;SDS011;67753;42.684;23.330;2023-05-14T00:49:24;3.90;;;3.60;;
78458;SDS011;67753;42.684;23.330;2023-05-14T00:51:27;4.20;;;3.80;;
78458;SDS011;67753;42.684;23.330;2023-05-14T00:53:31;4.00;;;3.60;;
78458;SDS011;67753;42.684;23.330;2023-05-14T00:55:34;3.87;;;3.57;;
78458;SDS011;67753;42.684;23.330;2023-05-14T00:57:38;4.00;;;3.70;;
78458;SDS011;67753;42.684;23.330;2023-05-14T00:59:39;4.63;;;3.70;;
78458;SDS011;67753;42.684;23.330;2023-05-14T01:01:41;4.23;;;3.67;;
78458;SDS011;67753;42.684;23.330;2023-05-14T01:03:43;3.97;;;3.60;;
78458;SDS011;67753;42.684;23.330;2023-05-14T01:05:47;3.87;;;3.57;;
78458;SDS011;67753;42.684;23.330;2023-05-14T01:07:59;3.50;;;3.20;;
78458;SDS011;67753;42.684;23.330;2023-05-14T01:10:10;4.80;;;3.90;;
78458;SDS011;67753;42.684;23.330;2023-05-14T01:12:20;4.17;;;3.57;;
78458;SDS011;67753;42.684;23.330;2023-05-14T01:14:32;3.70;;;3.40;;
78458;SDS011;67753;42.684;23.330;2023-05-14T01:16:40;3.50;;;3.27;;
78458;SDS011;67753;42.684;23.330;2023-05-14T01:18:43;3.80;;;3.50;;
78458;SDS011;67753;42.684;23.330;2023-05-14T01:20:48;3.47;;;3.27;;
78458;SDS011;67753;42.684;23.330;2023-05-14T01:22:53;3.77;;;3.47;;
78458;SDS011;67753;42.684;23.330;2023-05-14T01:24:54;4.17;;;3.30;;
78458;SDS011;67753;42.684;23.330;2023-05-14T01:26:57;4.27;;;3.47;;
78458;SDS011;67753;42.684;23.330;2023-05-14T01:29:06;3.47;;;3.27;;
78458;SDS011;67753;42.684;23.330;2023-05-14T01:31:15;3.27;;;3.00;;
78458;SDS011;67753;42.684;23.330;2023-05-14T01:33:25;3.67;;;3.20;;
78458;SDS011;67753;42.684;23.330;2023-05-14T01:35:30;3.47;;;3.17;;
78458;SDS011;67753;42.684;23.330;2023-05-14T01:37:32;4.17;;;2.97;;
78458;SDS011;67753;42.684;23.330;2023-05-14T01:39:38;3.63;;;3.27;;
78458;SDS011;67753;42.684;23.330;2023-05-14T01:41:41;3.47;;;3.23;;
78458;SDS011;67753;42.684;23.330;2023-05-14T01:43:44;3.17;;;2.93;;
78458;SDS011;67753;42.684;23.330;2023-05-14T01:45:48;3.37;;;3.07;;
78458;SDS011;67753;42.684;23.330;2023-05-14T01:47:52;2.90;;;2.70;;
78458;SDS011;67753;42.684;23.330;2023-05-14T01:49:54;4.17;;;2.70;;
78458;SDS011;67753;42.684;23.330;2023-05-14T01:51:55;3.73;;;3.20;;
78458;SDS011;67753;42.684;23.330;2023-05-14T01:53:57;3.20;;;3.00;;
78458;SDS011;67753;42.684;23.330;2023-05-14T01:56:00;3.47;;;3.23;;
78458;SDS011;67753;42.684;23.330;2023-05-14T01:58:02;4.23;;;3.20;;
78458;SDS011;67753;42.684;23.330;2023-05-14T02:00:05;3.33;;;3.03;;
78458;SDS011;67753;42.684;23.330;2023-05-14T02:02:08;3.47;;;3.17;;
78458;SDS011;67753;42.684;23.330;2023-05-14T02:04:12;3.17;;;2.87;;
78458;SDS011;67753;42.684;23.330;2023-05-14T02:06:14;2.97;;;2.70;;
78458;SDS011;67753;42.684;23.330;2023-05-14T02:08:16;3.33;;;3.13;;
78458;SDS011;67753;42.684;23.330;2023-05-14T02:10:18;3.10;;;2.87;;
78458;SDS011;67753;42.684;23.330;2023-05-14T02:12:22;3.27;;;3.00;;
78458;SDS011;67753;42.684;23.330;2023-05-14T02:14:25;4.10;;;3.63;;
78458;SDS011;67753;42.684;23.330;2023-05-14T02:16:28;3.40;;;3.10;;
78458;SDS011;67753;42.684;23.330;2023-05-14T02:18:29;3.47;;;3.20;;
78458;SDS011;67753;42.684;23.330;2023-05-14T02:20:31;3.63;;;3.27;;
78458;SDS011;67753;42.684;23.330;2023-05-14T02:22:33;3.63;;;3.33;;
78458;SDS011;67753;42.684;23.330;2023-05-14T02:24:36;3.63;;;3.30;;
78458;SDS011;67753;42.684;23.330;2023-05-14T02:26:40;3.40;;;3.10;;
78458;SDS011;67753;42.684;23.330;2023-05-14T02:28:43;3.30;;;3.10;;
78458;SDS011;67753;42.684;23.330;2023-05-14T02:30:46;4.03;;;3.60;;
78458;SDS011;67753;42.684;23.330;2023-05-14T02:32:49;3.70;;;3.40;;
78458;SDS011;67753;42.684;23.330;2023-05-14T02:34:50;3.47;;;3.27;;
78458;SDS011;67753;42.684;23.330;2023-05-14T02:36:52;4.93;;;3.37;;
78458;SDS011;67753;42.684;23.330;2023-05-14T02:38:54;4.30;;;3.90;;
78458;SDS011;67753;42.684;23.330;2023-05-14T02:40:56;3.83;;;3.43;;
78458;SDS011;67753;42.684;23.330;2023-05-14T02:42:57;4.00;;;3.60;;
78458;SDS011;67753;42.684;23.330;2023-05-14T02:45:01;4.40;;;3.63;;
78458;SDS011;67753;42.684;23.330;2023-05-14T02:47:03;3.70;;;3.40;;
78458;SDS011;67753;42.684;23.330;2023-05-14T02:49:05;3.70;;;3.27;;
78458;SDS011;67753;42.684;23.330;2023-05-14T02:51:06;3.57;;;3.27;;
78458;SDS011;67753;42.684;23.330;2023-05-14T02:53:08;3.70;;;3.40;;
78458;SDS011;67753;42.684;23.330;2023-05-14T02:55:11;3.47;;;3.23;;
78458;SDS011;67753;42.684;23.330;2023-05-14T02:57:12;3.60;;;3.30;;
78458;SDS011;67753;42.684;23.330;2023-05-14T02:59:14;3.67;;;3.37;;
78458;SDS011;67753;42.684;23.330;2023-05-14T03:01:18;3.83;;;2.93;;
78458;SDS011;67753;42.684;23.330;2023-05-14T03:03:20;3.47;;;3.17;;
78458;SDS011;67753;42.684;23.330;2023-05-14T03:05:21;3.97;;;3.13;;
78458;SDS011;67753;42.684;23.330;2023-05-14T03:07:23;5.57;;;3.50;;
78458;SDS011;67753;42.684;23.330;2023-05-14T03:09:25;3.40;;;3.20;;
78458;SDS011;67753;42.684;23.330;2023-05-14T03:11:27;6.60;;;3.60;;
78458;SDS011;67753;42.684;23.330;2023-05-14T03:13:29;3.60;;;3.30;;
78458;SDS011;67753;42.684;23.330;2023-05-14T03:15:31;4.03;;;3.47;;
78458;SDS011;67753;42.684;23.330;2023-05-14T03:17:34;3.07;;;2.87;;
78458;SDS011;67753;42.684;23.330;2023-05-14T03:19:36;3.30;;;3.00;;
78458;SDS011;67753;42.684;23.330;2023-05-14T03:21:38;3.73;;;3.10;;
78458;SDS011;67753;42.684;23.330;2023-05-14T03:23:40;2.93;;;2.73;;
78458;SDS011;67753;42.684;23.330;2023-05-14T03:25:42;4.10;;;2.97;;
78458;SDS011;67753;42.684;23.330;2023-05-14T03:27:44;3.20;;;2.93;;
78458;SDS011;67753;42.684;23.330;2023-05-14T03:29:45;4.23;;;3.23;;
78458;SDS011;67753;42.684;23.330;2023-05-14T03:31:47;3.43;;;3.10;;
78458;SDS011;67753;42.684;23.330;2023-05-14T03:33:53;5.03;;;3.27;;
78458;SDS011;67753;42.684;23.330;2023-05-14T03:35:54;3.73;;;3.43;;
78458;SDS011;67753;42.684;23.330;2023-05-14T03:37:59;4.63;;;3.60;;
78458;SDS011;67753;42.684;23.330;2023-05-14T03:40:00;3.80;;;3.50;;
78458;SDS011;67753;42.684;23.330;2023-05-14T03:42:02;3.60;;;3.30;;
78458;SDS011;67753;42.684;23.330;2023-05-14T03:44:05;3.63;;;3.33;;
78458;SDS011;67753;42.684;23.330;2023-05-14T03:46:08;3.57;;;3.27;;
78458;SDS011;67753;42.684;23.330;2023-05-14T03:48:10;3.80;;;3.40;;
78458;SDS011;67753;42.684;23.330;2023-05-14T03:50:13;3.83;;;3.50;;
78458;SDS011;67753;42.684;23.330;2023-05-14T03:52:15;3.83;;;3.53;;
78458;SDS011;67753;42.684;23.330;2023-05-14T03:54:17;3.40;;;3.20;;
78458;SDS011;67753;42.684;23.330;2023-05-14T03:56:19;3.63;;;3.33;;
78458;SDS011;67753;42.684;23.330;2023-05-14T03:58:22;3.40;;;3.10;;
78458;SDS011;67753;42.684;23.330;2023-05-14T04:00:24;3.73;;;3.37;;
78458;SDS011;67753;42.684;23.330;2023-05-14T04:02:26;3.37;;;3.07;;
78458;SDS011;67753;42.684;23.330;2023-05-14T04:04:28;3.20;;;3.00;;
78458;SDS011;67753;42.684;23.330;2023-05-14T04:06:31;3.47;;;3.17;;
78458;SDS011;67753;42.684;23.330;2023-05-14T04:08:33;4.67;;;4.27;;
78458;SDS011;67753;42.684;23.330;2023-05-14T04:10:35;32.80;;;28.10;;
78458;SDS011;67753;42.684;23.330;2023-05-14T04:12:37;17.87;;;15.77;;
78458;SDS011;67753;42.684;23.330;2023-05-14T04:14:39;21.17;;;18.23;;
78458;SDS011;67753;42.684;23.330;2023-05-14T04:16:41;15.53;;;13.80;;
78458;SDS011;67753;42.684;23.330;2023-05-14T04:18:43;12.40;;;11.10;;
78458;SDS011;67753;42.684;23.330;2023-05-14T04:20:45;14.70;;;13.20;;
78458;SDS011;67753;42.684;23.330;2023-05-14T04:22:48;9.87;;;8.87;;
78458;SDS011;67753;42.684;23.330;2023-05-14T04:24:49;9.30;;;8.27;;
78458;SDS011;67753;42.684;23.330;2023-05-14T04:26:52;17.87;;;16.00;;
78458;SDS011;67753;42.684;23.330;2023-05-14T04:28:54;68.23;;;59.90;;
78458;SDS011;67753;42.684;23.330;2023-05-14T04:30:55;45.03;;;38.33;;
78458;SDS011;67753;42.684;23.330;2023-05-14T04:32:57;33.97;;;29.73;;
78458;SDS011;67753;42.684;23.330;2023-05-14T04:34:59;17.10;;;15.47;;
78458;SDS011;67753;42.684;23.330;2023-05-14T04:37:01;13.30;;;12.00;;
78458;SDS011;67753;42.684;23.330;2023-05-14T04:39:04;13.10;;;11.60;;
78458;SDS011;67753;42.684;23.330;2023-05-14T04:41:08;15.73;;;14.13;;
78458;SDS011;67753;42.684;23.330;2023-05-14T04:43:10;42.00;;;37.10;;
78458;SDS011;67753;42.684;23.330;2023-05-14T04:45:11;40.10;;;35.80;;
78458;SDS011;67753;42.684;23.330;2023-05-14T04:47:13;12.27;;;11.07;;
78458;SDS011;67753;42.684;23.330;2023-05-14T04:49:15;10.37;;;9.37;;
78458;SDS011;67753;42.684;23.330;2023-05-14T04:51:17;10.77;;;9.07;;
78458;SDS011;67753;42.684;23.330;2023-05-14T04:53:19;7.30;;;6.60;;
78458;SDS011;67753;42.684;23.330;2023-05-14T04:55:24;5.87;;;5.30;;
78458;SDS011;67753;42.684;23.330;2023-05-14T04:57:26;5.77;;;4.57;;
78458;SDS011;67753;42.684;23.330;2023-05-14T04:59:28;5.17;;;3.70;;
78458;SDS011;67753;42.684;23.330;2023-05-14T05:01:29;4.60;;;4.20;;
78458;SDS011;67753;42.684;23.330;2023-05-14T05:03:32;4.23;;;3.83;;
78458;SDS011;67753;42.684;23.330;2023-05-14T05:05:34;4.30;;;3.90;;
78458;SDS011;67753;42.684;23.330;2023-05-14T05:07:36;4.20;;;3.77;;
78458;SDS011;67753;42.684;23.330;2023-05-14T05:09:38;4.17;;;3.77;;
78458;SDS011;67753;42.684;23.330;2023-05-14T05:11:41;3.87;;;3.57;;
78458;SDS011;67753;42.684;23.330;2023-05-14T05:13:43;4.30;;;3.90;;
78458;SDS011;67753;42.684;23.330;2023-05-14T05:15:47;4.70;;;3.50;;
78458;SDS011;67753;42.684;23.330;2023-05-14T05:17:49;5.97;;;3.90;;
78458;SDS011;67753;42.684;23.330;2023-05-14T05:19:51;3.70;;;3.40;;
78458;SDS011;67753;42.684;23.330;2023-05-14T05:21:52;6.07;;;3.50;;
78458;SDS011;67753;42.684;23.330;2023-05-14T05:23:54;5.30;;;3.77;;
78458;SDS011;67753;42.684;23.330;2023-05-14T05:25:56;4.23;;;3.90;;
78458;SDS011;67753;42.684;23.330;2023-05-14T05:28:00;4.80;;;3.13;;
78458;SDS011;67753;42.684;23.330;2023-05-14T05:30:02;4.70;;;4.30;;
78458;SDS011;67753;42.684;23.330;2023-05-14T05:32:05;4.37;;;4.07;;
78458;SDS011;67753;42.684;23.330;2023-05-14T05:34:08;5.43;;;4.37;;
78458;SDS011;67753;42.684;23.330;2023-05-14T05:36:10;7.63;;;4.00;;
78458;SDS011;67753;42.684;23.330;2023-05-14T05:38:11;4.57;;;3.70;;
78458;SDS011;67753;42.684;23.330;2023-05-14T05:40:15;5.83;;;4.47;;
78458;SDS011;67753;42.684;23.330;2023-05-14T05:42:16;4.60;;;4.20;;
78458;SDS011;67753;42.684;23.330;2023-05-14T05:44:20;5.67;;;4.60;;
78458;SDS011;67753;42.684;23.330;2023-05-14T05:46:21;5.13;;;4.70;;
78458;SDS011;67753;42.684;23.330;2023-05-14T05:48:23;5.00;;;4.50;;
78458;SDS011;67753;42.684;23.330;2023-05-14T05:50:25;7.60;;;5.27;;
78458;SDS011;67753;42.684;23.330;2023-05-14T05:52:27;5.73;;;5.03;;
78458;SDS011;67753;42.684;23.330;2023-05-14T05:54:30;5.50;;;5.00;;
78458;SDS011;67753;42.684;23.330;2023-05-14T05:56:32;5.90;;;5.40;;
78458;SDS011;67753;42.684;23.330;2023-05-14T05:58:34;5.37;;;4.87;;
78458;SDS011;67753;42.684;23.330;2023-05-14T06:00:37;5.87;;;5.20;;
78458;SDS011;67753;42.684;23.330;2023-05-14T06:02:39;6.07;;;5.20;;
78458;SDS011;67753;42.684;23.330;2023-05-14T06:04:41;5.43;;;4.93;;
78458;SDS011;67753;42.684;23.330;2023-05-14T06:06:43;5.93;;;4.90;;
78458;SDS011;67753;42.684;23.330;2023-05-14T06:08:45;7.23;;;5.30;;
78458;SDS011;67753;42.684;23.330;2023-05-14T06:10:46;6.93;;;5.83;;
78458;SDS011;67753;42.684;23.330;2023-05-14T06:12:48;5.97;;;5.20;;
78458;SDS011;67753;42.684;23.330;2023-05-14T06:14:50;5.87;;;5.20;;
78458;SDS011;67753;42.684;23.330;2023-05-14T06:16:55;6.70;;;6.00;;
78458;SDS011;67753;42.684;23.330;2023-05-14T06:18:57;5.73;;;5.10;;
78458;SDS011;67753;42.684;23.330;2023-05-14T06:20:59;5.50;;;5.00;;
78458;SDS011;67753;42.684;23.330;2023-05-14T06:23:01;6.00;;;5.40;;
78458;SDS011;67753;42.684;23.330;2023-05-14T06:25:03;5.90;;;5.30;;
78458;SDS011;67753;42.684;23.330;2023-05-14T06:27:06;7.00;;;5.57;;
78458;SDS011;67753;42.684;23.330;2023-05-14T06:29:08;8.93;;;6.27;;
78458;SDS011;67753;42.684;23.330;2023-05-14T06:31:10;6.60;;;5.10;;
78458;SDS011;67753;42.684;23.330;2023-05-14T06:33:14;8.30;;;5.67;;
78458;SDS011;67753;42.684;23.330;2023-05-14T06:35:16;6.27;;;5.67;;
78458;SDS011;67753;42.684;23.330;2023-05-14T06:37:18;6.20;;;5.60;;
78458;SDS011;67753;42.684;23.330;2023-05-14T06:39:20;6.50;;;5.80;;
78458;SDS011;67753;42.684;23.330;2023-05-14T06:41:22;5.70;;;5.20;;
78458;SDS011;67753;42.684;23.330;2023-05-14T06:43:25;8.20;;;5.70;;
78458;SDS011;67753;42.684;23.330;2023-05-14T06:45:28;6.63;;;6.00;;
78458;SDS011;67753;42.684;23.330;2023-05-14T06:47:30;7.37;;;6.60;;
78458;SDS011;67753;42.684;23.330;2023-05-14T06:49:34;10.30;;;6.13;;
78458;SDS011;67753;42.684;23.330;2023-05-14T06:51:36;7.00;;;6.30;;
78458;SDS011;67753;42.684;23.330;2023-05-14T06:53:39;8.10;;;6.53;;
78458;SDS011;67753;42.684;23.330;2023-05-14T06:55:41;6.93;;;6.00;;
78458;SDS011;67753;42.684;23.330;2023-05-14T06:57:44;8.00;;;7.30;;
78458;SDS011;67753;42.684;23.330;2023-05-14T06:59:46;8.10;;;7.30;;
78458;SDS011;67753;42.684;23.330;2023-05-14T07:01:48;12.13;;;6.90;;
78458;SDS011;67753;42.684;23.330;2023-05-14T07:03:50;7.37;;;6.77;;
78458;SDS011;67753;42.684;23.330;2023-05-14T07:05:53;7.53;;;5.80;;
78458;SDS011;67753;42.684;23.330;2023-05-14T07:07:56;7.27;;;5.90;;
78458;SDS011;67753;42.684;23.330;2023-05-14T07:09:57;7.60;;;6.80;;
78458;SDS011;67753;42.684;23.330;2023-05-14T07:11:59;9.10;;;6.77;;
78458;SDS011;67753;42.684;23.330;2023-05-14T07:14:01;7.67;;;6.87;;
78458;SDS011;67753;42.684;23.330;2023-05-14T07:16:03;6.67;;;6.07;;
78458;SDS011;67753;42.684;23.330;2023-05-14T07:18:05;8.10;;;6.97;;
78458;SDS011;67753;42.684;23.330;2023-05-14T07:20:08;7.40;;;6.73;;
78458;SDS011;67753;42.684;23.330;2023-05-14T07:22:11;7.80;;;7.00;;
78458;SDS011;67753;42.684;23.330;2023-05-14T07:24:13;7.27;;;6.13;;
78458;SDS011;67753;42.684;23.330;2023-05-14T07:26:15;7.70;;;6.90;;
78458;SDS011;67753;42.684;23.330;2023-05-14T07:28:17;8.47;;;6.70;;
78458;SDS011;67753;42.684;23.330;2023-05-14T07:30:19;10.87;;;7.73;;
78458;SDS011;67753;42.684;23.330;2023-05-14T07:32:21;15.40;;;9.83;;
78458;SDS011;67753;42.684;23.330;2023-05-14T07:34:24;11.70;;;9.00;;
78458;SDS011;67753;42.684;23.330;2023-05-14T07:36:26;9.43;;;8.07;;
78458;SDS011;67753;42.684;23.330;2023-05-14T07:38:29;11.20;;;8.20;;
78458;SDS011;67753;42.684;23.330;2023-05-14T07:40:32;12.70;;;8.33;;
78458;SDS011;67753;42.684;23.330;2023-05-14T07:42:34;15.30;;;8.23;;
78458;SDS011;67753;42.684;23.330;2023-05-14T07:44:36;10.07;;;7.70;;
78458;SDS011;67753;42.684;23.330;2023-05-14T07:46:37;13.37;;;8.30;;
78458;SDS011;67753;42.684;23.330;2023-05-14T07:48:40;9.77;;;7.13;;
78458;SDS011;67753;42.684;23.330;2023-05-14T07:50:42;9.30;;;7.90;;
78458;SDS011;67753;42.684;23.330;2023-05-14T07:52:44;11.80;;;8.23;;
78458;SDS011;67753;42.684;23.330;2023-05-14T07:54:47;8.90;;;8.00;;
78458;SDS011;67753;42.684;23.330;2023-05-14T07:56:50;8.97;;;7.60;;
78458;SDS011;67753;42.684;23.330;2023-05-14T07:58:52;11.00;;;8.10;;
78458;SDS011;67753;42.684;23.330;2023-05-14T08:00:54;7.87;;;7.17;;
78458;SDS011;67753;42.684;23.330;2023-05-14T08:02:56;8.63;;;7.73;;
78458;SDS011;67753;42.684;23.330;2023-05-14T08:04:58;7.93;;;7.00;;
78458;SDS011;67753;42.684;23.330;2023-05-14T08:07:00;10.23;;;8.03;;
78458;SDS011;67753;42.684;23.330;2023-05-14T08:09:02;8.50;;;7.70;;
78458;SDS011;67753;42.684;23.330;2023-05-14T08:11:06;9.73;;;7.63;;
78458;SDS011;67753;42.684;23.330;2023-05-14T08:13:07;9.60;;;8.07;;
78458;SDS011;67753;42.684;23.330;2023-05-14T08:15:11;11.80;;;8.07;;
78458;SDS011;67753;42.684;23.330;2023-05-14T08:17:12;12.47;;;7.87;;
78458;SDS011;67753;42.684;23.330;2023-05-14T08:19:14;8.67;;;6.90;;
78458;SDS011;67753;42.684;23.330;2023-05-14T08:21:16;7.80;;;7.00;;
78458;SDS011;67753;42.684;23.330;2023-05-14T08:23:18;7.97;;;7.27;;
78458;SDS011;67753;42.684;23.330;2023-05-14T08:25:21;9.07;;;6.83;;
78458;SDS011;67753;42.684;23.330;2023-05-14T08:27:26;6.50;;;6.00;;
78458;SDS011;67753;42.684;23.330;2023-05-14T08:29:28;8.07;;;6.73;;
78458;SDS011;67753;42.684;23.330;2023-05-14T08:31:30;7.93;;;7.13;;
78458;SDS011;67753;42.684;23.330;2023-05-14T08:33:32;8.53;;;7.33;;
78458;SDS011;67753;42.684;23.330;2023-05-14T08:35:33;7.27;;;6.57;;
78458;SDS011;67753;42.684;23.330;2023-05-14T08:37:35;8.00;;;7.27;;
78458;SDS011;67753;42.684;23.330;2023-05-14T08:39:37;10.13;;;9.13;;
78458;SDS011;67753;42.684;23.330;2023-05-14T08:41:39;11.40;;;10.40;;
78458;SDS011;67753;42.684;23.330;2023-05-14T08:43:43;9.80;;;8.80;;
78458;SDS011;67753;42.684;23.330;2023-05-14T08:45:51;9.73;;;8.73;;
78458;SDS011;67753;42.684;23.330;2023-05-14T08:47:55;9.23;;;7.70;;
78458;SDS011;67753;42.684;23.330;2023-05-14T08:50:00;8.10;;;7.40;;
78458;SDS011;67753;42.684;23.330;2023-05-14T08:52:03;7.90;;;7.23;;
78458;SDS011;67753;42.684;23.330;2023-05-14T08:54:05;8.17;;;7.37;;
78458;SDS011;67753;42.684;23.330;2023-05-14T08:56:08;12.00;;;9.03;;
78458;SDS011;67753;42.684;23.330;2023-05-14T08:58:11;9.47;;;8.30;;
78458;SDS011;67753;42.684;23.330;2023-05-14T09:00:15;7.90;;;7.30;;
78458;SDS011;67753;42.684;23.330;2023-05-14T09:02:17;10.23;;;7.80;;
78458;SDS011;67753;42.684;23.330;2023-05-14T09:04:23;8.33;;;7.50;;
78458;SDS011;67753;42.684;23.330;2023-05-14T09:06:26;7.57;;;6.90;;
78458;SDS011;67753;42.684;23.330;2023-05-14T09:08:32;6.83;;;6.30;;
78458;SDS011;67753;42.684;23.330;2023-05-14T09:10:35;7.73;;;7.10;;
78458;SDS011;67753;42.684;23.330;2023-05-14T09:12:37;8.07;;;7.37;;
78458;SDS011;67753;42.684;23.330;2023-05-14T09:14:40;9.07;;;8.27;;
78458;SDS011;67753;42.684;23.330;2023-05-14T09:16:44;9.70;;;8.90;;
78458;SDS011;67753;42.684;23.330;2023-05-14T09:18:47;8.80;;;8.00;;
78458;SDS011;67753;42.684;23.330;2023-05-14T09:20:48;8.17;;;7.47;;
78458;SDS011;67753;42.684;23.330;2023-05-14T09:22:52;8.90;;;7.93;;
78458;SDS011;67753;42.684;23.330;2023-05-14T09:25:02;8.47;;;7.57;;
78458;SDS011;67753;42.684;23.330;2023-05-14T09:27:06;8.57;;;7.77;;
78458;SDS011;67753;42.684;23.330;2023-05-14T09:29:10;8.03;;;7.33;;
78458;SDS011;67753;42.684;23.330;2023-05-14T09:31:12;8.63;;;7.57;;
78458;SDS011;67753;42.684;23.330;2023-05-14T09:33:15;8.70;;;7.70;;
78458;SDS011;67753;42.684;23.330;2023-05-14T09:35:26;11.07;;;7.73;;
78458;SDS011;67753;42.684;23.330;2023-05-14T09:37:29;8.57;;;7.43;;
78458;SDS011;67753;42.684;23.330;2023-05-14T09:39:31;8.23;;;7.53;;
78458;SDS011;67753;42.684;23.330;2023-05-14T09:41:35;8.50;;;7.70;;
78458;SDS011;67753;42.684;23.330;2023-05-14T09:43:38;26.63;;;21.87;;
78458;SDS011;67753;42.684;23.330;2023-05-14T09:45:40;89.33;;;74.77;;
78458;SDS011;67753;42.684;23.330;2023-05-14T09:47:42;139.27;;;112.37;;
78458;SDS011;67753;42.684;23.330;2023-05-14T09:49:48;29.33;;;24.93;;
78458;SDS011;67753;42.684;23.330;2023-05-14T09:51:50;26.17;;;22.10;;
78458;SDS011;67753;42.684;23.330;2023-05-14T09:53:52;113.23;;;96.97;;
78458;SDS011;67753;42.684;23.330;2023-05-14T09:55:55;80.93;;;68.40;;
78458;SDS011;67753;42.684;23.330;2023-05-14T09:57:57;30.67;;;27.47;;
78458;SDS011;67753;42.684;23.330;2023-05-14T09:59:58;69.73;;;57.37;;
78458;SDS011;67753;42.684;23.330;2023-05-14T10:02:00;42.27;;;37.70;;
78458;SDS011;67753;42.684;23.330;2023-05-14T10:04:05;24.80;;;22.20;;
78458;SDS011;67753;42.684;23.330;2023-05-14T10:06:09;24.33;;;21.77;;
78458;SDS011;67753;42.684;23.330;2023-05-14T10:08:19;20.20;;;18.20;;
78458;SDS011;67753;42.684;23.330;2023-05-14T10:10:25;18.80;;;16.80;;
78458;SDS011;67753;42.684;23.330;2023-05-14T10:12:31;17.17;;;15.37;;
78458;SDS011;67753;42.684;23.330;2023-05-14T10:14:35;26.77;;;23.97;;
78458;SDS011;67753;42.684;23.330;2023-05-14T10:16:41;27.10;;;24.17;;
78458;SDS011;67753;42.684;23.330;2023-05-14T10:18:49;22.13;;;18.57;;
78458;SDS011;67753;42.684;23.330;2023-05-14T10:20:59;28.43;;;24.17;;
78458;SDS011;67753;42.684;23.330;2023-05-14T10:23:06;30.07;;;25.43;;
78458;SDS011;67753;42.684;23.330;2023-05-14T10:25:08;25.37;;;21.60;;
78458;SDS011;67753;42.684;23.330;2023-05-14T10:27:11;21.60;;;19.30;;
78458;SDS011;67753;42.684;23.330;2023-05-14T10:29:14;19.10;;;17.03;;
78458;SDS011;67753;42.684;23.330;2023-05-14T10:31:16;26.17;;;23.33;;
78458;SDS011;67753;42.684;23.330;2023-05-14T10:33:18;20.10;;;18.10;;
78458;SDS011;67753;42.684;23.330;2023-05-14T10:35:20;26.20;;;22.23;;
78458;SDS011;67753;42.684;23.330;2023-05-14T10:37:24;19.70;;;17.60;;
78458;SDS011;67753;42.684;23.330;2023-05-14T10:39:53;18.83;;;16.83;;
78458;SDS011;67753;42.684;23.330;2023-05-14T10:41:58;22.83;;;20.53;;
78458;SDS011;67753;42.684;23.330;2023-05-14T10:44:00;12.53;;;11.33;;
78458;SDS011;67753;42.684;23.330;2023-05-14T10:46:09;20.20;;;18.03;;
78458;SDS011;67753;42.684;23.330;2023-05-14T10:48:13;16.77;;;15.07;;
78458;SDS011;67753;42.684;23.330;2023-05-14T10:50:15;16.63;;;14.90;;
78458;SDS011;67753;42.684;23.330;2023-05-14T10:52:17;18.17;;;16.27;;
78458;SDS011;67753;42.684;23.330;2023-05-14T10:54:20;17.57;;;15.87;;
78458;SDS011;67753;42.684;23.330;2023-05-14T10:56:24;15.33;;;13.80;;
78458;SDS011;67753;42.684;23.330;2023-05-14T10:58:26;15.03;;;13.53;;
78458;SDS011;67753;42.684;23.330;2023-05-14T11:00:32;15.50;;;14.03;;
78458;SDS011;67753;42.684;23.330;2023-05-14T11:02:34;13.57;;;12.37;;
78458;SDS011;67753;42.684;23.330;2023-05-14T11:04:37;14.03;;;12.70;;
78458;SDS011;67753;42.684;23.330;2023-05-14T11:06:41;13.00;;;11.70;;
78458;SDS011;67753;42.684;23.330;2023-05-14T11:08:44;15.07;;;13.67;;
78458;SDS011;67753;42.684;23.330;2023-05-14T11:10:46;12.00;;;9.83;;
78458;SDS011;67753;42.684;23.330;2023-05-14T11:12:50;24.83;;;20.50;;
78458;SDS011;67753;42.684;23.330;2023-05-14T11:14:53;18.60;;;13.60;;
78458;SDS011;67753;42.684;23.330;2023-05-14T11:16:56;10.73;;;9.73;;
78458;SDS011;67753;42.684;23.330;2023-05-14T11:19:02;10.00;;;9.20;;
78458;SDS011;67753;42.684;23.330;2023-05-14T11:21:05;11.67;;;10.57;;
78458;SDS011;67753;42.684;23.330;2023-05-14T11:23:07;11.40;;;10.40;;
78458;SDS011;67753;42.684;23.330;2023-05-14T11:25:10;8.30;;;7.50;;
78458;SDS011;67753;42.684;23.330;2023-05-14T11:27:14;10.43;;;9.57;;
78458;SDS011;67753;42.684;23.330;2023-05-14T11:29:17;9.10;;;8.40;;
78458;SDS011;67753;42.684;23.330;2023-05-14T11:31:20;9.40;;;8.60;;
78458;SDS011;67753;42.684;23.330;2023-05-14T11:33:23;9.67;;;8.70;;
78458;SDS011;67753;42.684;23.330;2023-05-14T11:35:24;9.93;;;9.03;;
78458;SDS011;67753;42.684;23.330;2023-05-14T11:37:27;10.03;;;9.03;;
78458;SDS011;67753;42.684;23.330;2023-05-14T11:39:29;10.13;;;9.23;;
78458;SDS011;67753;42.684;23.330;2023-05-14T11:41:32;9.30;;;8.60;;
78458;SDS011;67753;42.684;23.330;2023-05-14T11:43:34;8.13;;;7.57;;
78458;SDS011;67753;42.684;23.330;2023-05-14T11:45:38;8.50;;;7.90;;
78458;SDS011;67753;42.684;23.330;2023-05-14T11:47:40;8.47;;;7.67;;
78458;SDS011;67753;42.684;23.330;2023-05-14T11:49:45;8.10;;;7.40;;
78458;SDS011;67753;42.684;23.330;2023-05-14T11:51:47;9.17;;;8.43;;
78458;SDS011;67753;42.684;23.330;2023-05-14T11:53:50;8.73;;;8.03;;
78458;SDS011;67753;42.684;23.330;2023-05-14T11:55:51;9.77;;;8.97;;
78458;SDS011;67753;42.684;23.330;2023-05-14T11:57:54;8.40;;;7.77;;
78458;SDS011;67753;42.684;23.330;2023-05-14T11:59:56;9.93;;;9.13;;
78458;SDS011;67753;42.684;23.330;2023-05-14T12:02:04;8.70;;;8.00;;
78458;SDS011;67753;42.684;23.330;2023-05-14T12:04:10;9.43;;;8.53;;